sensor_id;sensor_type;location;lat;lon;timestamp;P1;durP1;ratioP1;P2;durP2;ratioP2
4638;SDS011;2332;38.646;-9.154;2023-12-20T00:01:37;32.83;;;19.83;;
4638;SDS011;2332;38.646;-9.154;2023-12-20T00:04:03;39.80;;;20.90;;
4638;SDS011;2332;38.646;-9.154;2023-12-20T00:06:29;29.77;;;16.90;;
4638;SDS011;2332;38.646;-9.154;2023-12-20T00:08:54;32.97;;;19.83;;
4638;SDS011;2332;38.646;-9.154;2023-12-20T00:11:19;32.27;;;19.53;;
4638;SDS011;2332;38.646;-9.154;2023-12-20T00:13:45;30.03;;;17.00;;
4638;SDS011;2332;38.646;-9.154;2023-12-20T00:16:10;24.50;;;13.43;;
4638;SDS011;2332;38.646;-9.154;2023-12-20T00:18:36;24.57;;;13.53;;
4638;SDS011;2332;38.646;-9.154;2023-12-20T00:21:01;26.10;;;13.97;;
4638;SDS011;2332;38.646;-9.154;2023-12-20T00:23:26;31.20;;;20.00;;
4638;SDS011;2332;38.646;-9.154;2023-12-20T00:25:52;32.60;;;21.40;;
4638;SDS011;2332;38.646;-9.154;2023-12-20T00:28:17;37.20;;;24.13;;
4638;SDS011;2332;38.646;-9.154;2023-12-20T00:30:42;39.47;;;23.13;;
4638;SDS011;2332;38.646;-9.154;2023-12-20T00:33:09;34.23;;;23.47;;
4638;SDS011;2332;38.646;-9.154;2023-12-20T00:35:34;48.70;;;29.60;;
4638;SDS011;2332;38.646;-9.154;2023-12-20T00:37:59;47.30;;;29.93;;
4638;SDS011;2332;38.646;-9.154;2023-12-20T00:40:25;36.10;;;24.60;;
4638;SDS011;2332;38.646;-9.154;2023-12-20T00:42:50;44.23;;;25.60;;
4638;SDS011;2332;38.646;-9.154;2023-12-20T00:45:15;42.53;;;22.90;;
4638;SDS011;2332;38.646;-9.154;2023-12-20T00:47:41;36.63;;;19.40;;
4638;SDS011;2332;38.646;-9.154;2023-12-20T00:50:07;41.17;;;21.37;;
4638;SDS011;2332;38.646;-9.154;2023-12-20T00:52:32;40.00;;;21.70;;
4638;SDS011;2332;38.646;-9.154;2023-12-20T00:54:57;31.00;;;16.73;;
4638;SDS011;2332;38.646;-9.154;2023-12-20T00:57:23;25.17;;;11.57;;
4638;SDS011;2332;38.646;-9.154;2023-12-20T00:59:48;31.77;;;15.97;;
4638;SDS011;2332;38.646;-9.154;2023-12-20T01:02:14;27.43;;;14.90;;
4638;SDS011;2332;38.646;-9.154;2023-12-20T01:04:39;20.40;;;13.60;;
4638;SDS011;2332;38.646;-9.154;2023-12-20T01:07:04;29.97;;;11.70;;
4638;SDS011;2332;38.646;-9.154;2023-12-20T01:09:30;28.90;;;13.07;;
4638;SDS011;2332;38.646;-9.154;2023-12-20T01:11:55;17.83;;;11.70;;
4638;SDS011;2332;38.646;-9.154;2023-12-20T01:14:21;29.03;;;10.27;;
4638;SDS011;2332;38.646;-9.154;2023-12-20T01:16:46;24.37;;;9.93;;
4638;SDS011;2332;38.646;-9.154;2023-12-20T01:19:12;19.97;;;9.90;;
4638;SDS011;2332;38.646;-9.154;2023-12-20T01:21:39;20.23;;;9.93;;
4638;SDS011;2332;38.646;-9.154;2023-12-20T01:24:04;23.20;;;11.80;;
4638;SDS011;2332;38.646;-9.154;2023-12-20T01:26:29;30.67;;;16.80;;
4638;SDS011;2332;38.646;-9.154;2023-12-20T01:28:55;32.23;;;18.37;;
4638;SDS011;2332;38.646;-9.154;2023-12-20T01:31:20;22.30;;;9.07;;
4638;SDS011;2332;38.646;-9.154;2023-12-20T01:33:45;19.83;;;10.87;;
4638;SDS011;2332;38.646;-9.154;2023-12-20T01:36:11;19.00;;;8.80;;
4638;SDS011;2332;38.646;-9.154;2023-12-20T01:38:36;20.47;;;7.80;;
4638;SDS011;2332;38.646;-9.154;2023-12-20T01:41:02;28.93;;;9.03;;
4638;SDS011;2332;38.646;-9.154;2023-12-20T01:43:27;20.10;;;7.10;;
4638;SDS011;2332;38.646;-9.154;2023-12-20T01:45:52;25.27;;;8.33;;
4638;SDS011;2332;38.646;-9.154;2023-12-20T01:48:18;17.63;;;7.67;;
4638;SDS011;2332;38.646;-9.154;2023-12-20T01:50:44;19.23;;;8.80;;
4638;SDS011;2332;38.646;-9.154;2023-12-20T01:53:10;20.33;;;10.07;;
4638;SDS011;2332;38.646;-9.154;2023-12-20T01:55:38;19.20;;;8.80;;
4638;SDS011;2332;38.646;-9.154;2023-12-20T01:58:04;21.47;;;8.37;;
4638;SDS011;2332;38.646;-9.154;2023-12-20T02:00:30;14.47;;;8.07;;
4638;SDS011;2332;38.646;-9.154;2023-12-20T02:02:56;18.17;;;8.10;;
4638;SDS011;2332;38.646;-9.154;2023-12-20T02:05:22;16.50;;;9.27;;
4638;SDS011;2332;38.646;-9.154;2023-12-20T02:07:47;23.33;;;13.90;;
4638;SDS011;2332;38.646;-9.154;2023-12-20T02:10:13;23.30;;;10.10;;
4638;SDS011;2332;38.646;-9.154;2023-12-20T02:12:38;21.37;;;12.90;;
4638;SDS011;2332;38.646;-9.154;2023-12-20T02:15:04;28.90;;;18.00;;
4638;SDS011;2332;38.646;-9.154;2023-12-20T02:17:29;37.20;;;19.80;;
4638;SDS011;2332;38.646;-9.154;2023-12-20T02:19:55;31.23;;;20.27;;
4638;SDS011;2332;38.646;-9.154;2023-12-20T02:22:20;35.33;;;20.73;;
4638;SDS011;2332;38.646;-9.154;2023-12-20T02:24:45;30.73;;;22.27;;
4638;SDS011;2332;38.646;-9.154;2023-12-20T02:27:11;33.97;;;21.43;;
4638;SDS011;2332;38.646;-9.154;2023-12-20T02:29:36;44.63;;;23.50;;
4638;SDS011;2332;38.646;-9.154;2023-12-20T02:32:01;43.33;;;23.47;;
4638;SDS011;2332;38.646;-9.154;2023-12-20T02:34:27;37.73;;;20.70;;
4638;SDS011;2332;38.646;-9.154;2023-12-20T02:36:53;38.57;;;22.33;;
4638;SDS011;2332;38.646;-9.154;2023-12-20T02:39:18;36.43;;;19.43;;
4638;SDS011;2332;38.646;-9.154;2023-12-20T02:41:44;30.63;;;18.23;;
4638;SDS011;2332;38.646;-9.154;2023-12-20T02:44:09;35.63;;;20.40;;
4638;SDS011;2332;38.646;-9.154;2023-12-20T02:46:35;31.73;;;18.27;;
4638;SDS011;2332;38.646;-9.154;2023-12-20T02:49:00;57.23;;;20.27;;
4638;SDS011;2332;38.646;-9.154;2023-12-20T02:51:25;33.20;;;17.43;;
4638;SDS011;2332;38.646;-9.154;2023-12-20T02:53:51;39.97;;;17.27;;
4638;SDS011;2332;38.646;-9.154;2023-12-20T02:56:16;24.87;;;17.97;;
4638;SDS011;2332;38.646;-9.154;2023-12-20T02:58:41;32.83;;;17.90;;
4638;SDS011;2332;38.646;-9.154;2023-12-20T03:01:07;28.20;;;17.23;;
4638;SDS011;2332;38.646;-9.154;2023-12-20T03:03:32;31.07;;;16.30;;
4638;SDS011;2332;38.646;-9.154;2023-12-20T03:05:58;32.43;;;16.10;;
4638;SDS011;2332;38.646;-9.154;2023-12-20T03:08:23;33.30;;;17.90;;
4638;SDS011;2332;38.646;-9.154;2023-12-20T03:10:49;37.70;;;16.43;;
4638;SDS011;2332;38.646;-9.154;2023-12-20T03:13:14;28.77;;;16.23;;
4638;SDS011;2332;38.646;-9.154;2023-12-20T03:15:40;29.40;;;16.73;;
4638;SDS011;2332;38.646;-9.154;2023-12-20T03:18:05;36.70;;;16.17;;
4638;SDS011;2332;38.646;-9.154;2023-12-20T03:20:30;36.87;;;17.40;;
4638;SDS011;2332;38.646;-9.154;2023-12-20T03:23:02;30.37;;;15.90;;
4638;SDS011;2332;38.646;-9.154;2023-12-20T03:25:27;35.53;;;15.97;;
4638;SDS011;2332;38.646;-9.154;2023-12-20T03:27:53;30.57;;;16.10;;
4638;SDS011;2332;38.646;-9.154;2023-12-20T03:30:18;31.90;;;16.40;;
4638;SDS011;2332;38.646;-9.154;2023-12-20T03:32:44;31.33;;;14.67;;
4638;SDS011;2332;38.646;-9.154;2023-12-20T03:35:09;25.30;;;8.27;;
4638;SDS011;2332;38.646;-9.154;2023-12-20T03:37:35;19.40;;;7.73;;
4638;SDS011;2332;38.646;-9.154;2023-12-20T03:40:00;19.40;;;7.03;;
4638;SDS011;2332;38.646;-9.154;2023-12-20T03:42:26;29.83;;;7.70;;
4638;SDS011;2332;38.646;-9.154;2023-12-20T03:44:51;24.63;;;6.13;;
4638;SDS011;2332;38.646;-9.154;2023-12-20T03:47:16;20.90;;;5.03;;
4638;SDS011;2332;38.646;-9.154;2023-12-20T03:49:42;25.70;;;6.10;;
4638;SDS011;2332;38.646;-9.154;2023-12-20T03:52:07;20.63;;;5.27;;
4638;SDS011;2332;38.646;-9.154;2023-12-20T03:54:33;21.73;;;4.47;;
4638;SDS011;2332;38.646;-9.154;2023-12-20T03:56:58;26.33;;;7.07;;
4638;SDS011;2332;38.646;-9.154;2023-12-20T03:59:23;19.83;;;5.93;;
4638;SDS011;2332;38.646;-9.154;2023-12-20T04:01:49;33.13;;;6.63;;
4638;SDS011;2332;38.646;-9.154;2023-12-20T04:04:14;33.87;;;5.40;;
4638;SDS011;2332;38.646;-9.154;2023-12-20T04:06:40;18.07;;;5.67;;
4638;SDS011;2332;38.646;-9.154;2023-12-20T04:09:05;19.00;;;4.83;;
4638;SDS011;2332;38.646;-9.154;2023-12-20T04:11:30;23.43;;;5.50;;
4638;SDS011;2332;38.646;-9.154;2023-12-20T04:13:56;22.03;;;6.10;;
4638;SDS011;2332;38.646;-9.154;2023-12-20T04:16:21;26.43;;;5.53;;
4638;SDS011;2332;38.646;-9.154;2023-12-20T04:18:47;24.70;;;5.43;;
4638;SDS011;2332;38.646;-9.154;2023-12-20T04:21:12;25.43;;;4.70;;
4638;SDS011;2332;38.646;-9.154;2023-12-20T04:23:37;21.50;;;5.43;;
4638;SDS011;2332;38.646;-9.154;2023-12-20T04:26:03;29.13;;;5.20;;
4638;SDS011;2332;38.646;-9.154;2023-12-20T04:28:28;31.03;;;5.57;;
4638;SDS011;2332;38.646;-9.154;2023-12-20T04:30:56;23.27;;;5.93;;
4638;SDS011;2332;38.646;-9.154;2023-12-20T04:33:22;24.83;;;5.70;;
4638;SDS011;2332;38.646;-9.154;2023-12-20T04:35:48;25.27;;;6.10;;
4638;SDS011;2332;38.646;-9.154;2023-12-20T04:38:13;21.20;;;6.33;;
4638;SDS011;2332;38.646;-9.154;2023-12-20T04:40:38;22.37;;;5.23;;
4638;SDS011;2332;38.646;-9.154;2023-12-20T04:43:06;33.07;;;5.63;;
4638;SDS011;2332;38.646;-9.154;2023-12-20T04:45:31;20.83;;;4.80;;
4638;SDS011;2332;38.646;-9.154;2023-12-20T04:47:56;25.57;;;4.80;;
4638;SDS011;2332;38.646;-9.154;2023-12-20T04:50:22;20.20;;;4.30;;
4638;SDS011;2332;38.646;-9.154;2023-12-20T04:52:47;26.30;;;5.33;;
4638;SDS011;2332;38.646;-9.154;2023-12-20T04:55:12;21.23;;;3.77;;
4638;SDS011;2332;38.646;-9.154;2023-12-20T04:57:38;32.37;;;5.00;;
4638;SDS011;2332;38.646;-9.154;2023-12-20T05:00:04;16.77;;;4.53;;
4638;SDS011;2332;38.646;-9.154;2023-12-20T05:02:30;21.43;;;4.63;;
4638;SDS011;2332;38.646;-9.154;2023-12-20T05:04:55;16.93;;;5.40;;
4638;SDS011;2332;38.646;-9.154;2023-12-20T05:07:21;25.63;;;5.70;;
4638;SDS011;2332;38.646;-9.154;2023-12-20T05:09:46;14.90;;;4.80;;
4638;SDS011;2332;38.646;-9.154;2023-12-20T05:12:12;22.67;;;6.57;;
4638;SDS011;2332;38.646;-9.154;2023-12-20T05:14:37;24.97;;;5.60;;
4638;SDS011;2332;38.646;-9.154;2023-12-20T05:17:02;19.50;;;4.77;;
4638;SDS011;2332;38.646;-9.154;2023-12-20T05:19:28;21.33;;;4.67;;
4638;SDS011;2332;38.646;-9.154;2023-12-20T05:21:53;27.13;;;5.70;;
4638;SDS011;2332;38.646;-9.154;2023-12-20T05:24:19;16.03;;;4.57;;
4638;SDS011;2332;38.646;-9.154;2023-12-20T05:26:44;16.37;;;4.33;;
4638;SDS011;2332;38.646;-9.154;2023-12-20T05:29:10;28.33;;;5.13;;
4638;SDS011;2332;38.646;-9.154;2023-12-20T05:31:35;12.13;;;5.13;;
4638;SDS011;2332;38.646;-9.154;2023-12-20T05:34:00;19.40;;;3.70;;
4638;SDS011;2332;38.646;-9.154;2023-12-20T05:36:26;16.70;;;4.97;;
4638;SDS011;2332;38.646;-9.154;2023-12-20T05:38:51;16.57;;;4.17;;
4638;SDS011;2332;38.646;-9.154;2023-12-20T05:41:17;11.40;;;4.23;;
4638;SDS011;2332;38.646;-9.154;2023-12-20T05:43:42;18.13;;;4.30;;
4638;SDS011;2332;38.646;-9.154;2023-12-20T05:46:09;13.53;;;3.90;;
4638;SDS011;2332;38.646;-9.154;2023-12-20T05:48:37;8.40;;;3.40;;
4638;SDS011;2332;38.646;-9.154;2023-12-20T05:51:02;15.03;;;4.30;;
4638;SDS011;2332;38.646;-9.154;2023-12-20T05:53:28;12.57;;;4.10;;
4638;SDS011;2332;38.646;-9.154;2023-12-20T05:55:53;14.03;;;3.97;;
4638;SDS011;2332;38.646;-9.154;2023-12-20T05:58:19;12.00;;;3.97;;
4638;SDS011;2332;38.646;-9.154;2023-12-20T06:00:44;17.47;;;4.20;;
4638;SDS011;2332;38.646;-9.154;2023-12-20T06:03:09;8.77;;;3.60;;
4638;SDS011;2332;38.646;-9.154;2023-12-20T06:05:35;11.60;;;3.07;;
4638;SDS011;2332;38.646;-9.154;2023-12-20T06:08:00;8.83;;;3.53;;
4638;SDS011;2332;38.646;-9.154;2023-12-20T06:10:28;7.53;;;2.80;;
4638;SDS011;2332;38.646;-9.154;2023-12-20T06:12:53;4.63;;;2.10;;
4638;SDS011;2332;38.646;-9.154;2023-12-20T06:15:19;6.00;;;2.40;;
4638;SDS011;2332;38.646;-9.154;2023-12-20T06:17:44;11.83;;;2.53;;
4638;SDS011;2332;38.646;-9.154;2023-12-20T06:20:11;4.60;;;2.00;;
4638;SDS011;2332;38.646;-9.154;2023-12-20T06:22:38;9.73;;;1.97;;
4638;SDS011;2332;38.646;-9.154;2023-12-20T06:25:04;3.30;;;1.83;;
4638;SDS011;2332;38.646;-9.154;2023-12-20T06:27:29;3.03;;;1.80;;
4638;SDS011;2332;38.646;-9.154;2023-12-20T06:29:55;6.17;;;2.03;;
4638;SDS011;2332;38.646;-9.154;2023-12-20T06:32:21;9.07;;;2.10;;
4638;SDS011;2332;38.646;-9.154;2023-12-20T06:34:52;5.63;;;2.80;;
4638;SDS011;2332;38.646;-9.154;2023-12-20T06:37:17;4.10;;;2.03;;
4638;SDS011;2332;38.646;-9.154;2023-12-20T06:39:43;4.83;;;2.30;;
4638;SDS011;2332;38.646;-9.154;2023-12-20T06:42:08;4.27;;;1.90;;
4638;SDS011;2332;38.646;-9.154;2023-12-20T06:44:33;4.77;;;1.70;;
4638;SDS011;2332;38.646;-9.154;2023-12-20T06:46:59;7.73;;;2.03;;
4638;SDS011;2332;38.646;-9.154;2023-12-20T06:49:24;6.77;;;2.00;;
4638;SDS011;2332;38.646;-9.154;2023-12-20T06:51:50;9.87;;;2.43;;
4638;SDS011;2332;38.646;-9.154;2023-12-20T06:54:15;6.53;;;2.20;;
4638;SDS011;2332;38.646;-9.154;2023-12-20T06:56:41;9.90;;;2.03;;
4638;SDS011;2332;38.646;-9.154;2023-12-20T06:59:06;10.60;;;2.07;;
4638;SDS011;2332;38.646;-9.154;2023-12-20T07:01:31;10.30;;;2.20;;
4638;SDS011;2332;38.646;-9.154;2023-12-20T07:03:57;11.80;;;2.37;;
4638;SDS011;2332;38.646;-9.154;2023-12-20T07:06:22;7.10;;;1.83;;
4638;SDS011;2332;38.646;-9.154;2023-12-20T07:08:48;3.73;;;1.97;;
4638;SDS011;2332;38.646;-9.154;2023-12-20T07:11:13;6.00;;;1.97;;
4638;SDS011;2332;38.646;-9.154;2023-12-20T07:13:39;8.63;;;1.97;;
4638;SDS011;2332;38.646;-9.154;2023-12-20T07:16:04;15.10;;;2.20;;
4638;SDS011;2332;38.646;-9.154;2023-12-20T07:18:29;10.30;;;2.30;;
4638;SDS011;2332;38.646;-9.154;2023-12-20T07:20:55;10.10;;;2.80;;
4638;SDS011;2332;38.646;-9.154;2023-12-20T07:23:20;9.70;;;2.17;;
4638;SDS011;2332;38.646;-9.154;2023-12-20T07:25:46;6.47;;;2.43;;
4638;SDS011;2332;38.646;-9.154;2023-12-20T07:28:13;11.50;;;2.20;;
4638;SDS011;2332;38.646;-9.154;2023-12-20T07:30:38;5.80;;;1.73;;
4638;SDS011;2332;38.646;-9.154;2023-12-20T07:33:04;5.33;;;2.47;;
4638;SDS011;2332;38.646;-9.154;2023-12-20T07:35:30;6.30;;;2.40;;
4638;SDS011;2332;38.646;-9.154;2023-12-20T07:37:55;8.90;;;2.53;;
4638;SDS011;2332;38.646;-9.154;2023-12-20T07:40:20;7.20;;;2.63;;
4638;SDS011;2332;38.646;-9.154;2023-12-20T07:42:46;9.30;;;3.20;;
4638;SDS011;2332;38.646;-9.154;2023-12-20T07:45:11;8.63;;;2.73;;
4638;SDS011;2332;38.646;-9.154;2023-12-20T07:47:37;5.60;;;2.93;;
4638;SDS011;2332;38.646;-9.154;2023-12-20T07:50:02;4.20;;;2.70;;
4638;SDS011;2332;38.646;-9.154;2023-12-20T07:52:28;5.50;;;2.90;;
4638;SDS011;2332;38.646;-9.154;2023-12-20T07:54:57;5.97;;;3.67;;
4638;SDS011;2332;38.646;-9.154;2023-12-20T07:57:23;9.30;;;3.60;;
4638;SDS011;2332;38.646;-9.154;2023-12-20T07:59:48;4.23;;;3.70;;
4638;SDS011;2332;38.646;-9.154;2023-12-20T08:02:14;4.47;;;3.67;;
4638;SDS011;2332;38.646;-9.154;2023-12-20T08:04:39;6.37;;;4.50;;
4638;SDS011;2332;38.646;-9.154;2023-12-20T08:07:06;4.60;;;3.60;;
4638;SDS011;2332;38.646;-9.154;2023-12-20T08:09:31;5.40;;;4.13;;
4638;SDS011;2332;38.646;-9.154;2023-12-20T08:11:57;7.40;;;4.83;;
4638;SDS011;2332;38.646;-9.154;2023-12-20T08:14:24;10.73;;;6.10;;
4638;SDS011;2332;38.646;-9.154;2023-12-20T08:16:50;13.03;;;8.20;;
4638;SDS011;2332;38.646;-9.154;2023-12-20T08:19:15;11.00;;;7.50;;
4638;SDS011;2332;38.646;-9.154;2023-12-20T08:21:40;11.70;;;8.00;;
4638;SDS011;2332;38.646;-9.154;2023-12-20T08:24:06;14.67;;;8.70;;
4638;SDS011;2332;38.646;-9.154;2023-12-20T08:26:32;10.90;;;8.13;;
4638;SDS011;2332;38.646;-9.154;2023-12-20T08:28:57;12.13;;;9.40;;
4638;SDS011;2332;38.646;-9.154;2023-12-20T08:31:23;14.70;;;9.53;;
4638;SDS011;2332;38.646;-9.154;2023-12-20T08:33:48;16.03;;;11.43;;
4638;SDS011;2332;38.646;-9.154;2023-12-20T08:36:14;19.40;;;11.80;;
4638;SDS011;2332;38.646;-9.154;2023-12-20T08:38:40;18.57;;;14.47;;
4638;SDS011;2332;38.646;-9.154;2023-12-20T08:41:06;26.70;;;14.60;;
4638;SDS011;2332;38.646;-9.154;2023-12-20T08:43:31;28.00;;;15.00;;
4638;SDS011;2332;38.646;-9.154;2023-12-20T08:45:57;26.10;;;15.20;;
4638;SDS011;2332;38.646;-9.154;2023-12-20T08:48:22;28.33;;;15.17;;
4638;SDS011;2332;38.646;-9.154;2023-12-20T08:50:48;21.40;;;13.20;;
4638;SDS011;2332;38.646;-9.154;2023-12-20T08:53:15;19.30;;;12.70;;
4638;SDS011;2332;38.646;-9.154;2023-12-20T08:55:41;20.20;;;13.40;;
4638;SDS011;2332;38.646;-9.154;2023-12-20T08:58:07;22.60;;;13.10;;
4638;SDS011;2332;38.646;-9.154;2023-12-20T09:00:33;15.83;;;11.17;;
4638;SDS011;2332;38.646;-9.154;2023-12-20T09:02:58;14.93;;;10.00;;
4638;SDS011;2332;38.646;-9.154;2023-12-20T09:05:24;17.20;;;9.80;;
4638;SDS011;2332;38.646;-9.154;2023-12-20T09:07:50;14.60;;;10.23;;
4638;SDS011;2332;38.646;-9.154;2023-12-20T09:10:15;13.80;;;9.93;;
4638;SDS011;2332;38.646;-9.154;2023-12-20T09:12:40;18.50;;;11.17;;
4638;SDS011;2332;38.646;-9.154;2023-12-20T09:15:07;14.93;;;9.30;;
4638;SDS011;2332;38.646;-9.154;2023-12-20T09:17:33;13.17;;;8.50;;
4638;SDS011;2332;38.646;-9.154;2023-12-20T09:19:58;13.67;;;8.10;;
4638;SDS011;2332;38.646;-9.154;2023-12-20T09:22:25;11.63;;;8.40;;
4638;SDS011;2332;38.646;-9.154;2023-12-20T09:24:50;17.53;;;7.80;;
4638;SDS011;2332;38.646;-9.154;2023-12-20T09:27:16;13.70;;;8.30;;
4638;SDS011;2332;38.646;-9.154;2023-12-20T09:29:41;11.87;;;6.87;;
4638;SDS011;2332;38.646;-9.154;2023-12-20T09:32:06;13.00;;;6.57;;
4638;SDS011;2332;38.646;-9.154;2023-12-20T09:34:33;8.93;;;6.20;;
4638;SDS011;2332;38.646;-9.154;2023-12-20T09:36:58;13.77;;;5.20;;
4638;SDS011;2332;38.646;-9.154;2023-12-20T09:39:23;8.47;;;4.90;;
4638;SDS011;2332;38.646;-9.154;2023-12-20T09:41:51;16.07;;;4.63;;
4638;SDS011;2332;38.646;-9.154;2023-12-20T09:44:21;6.20;;;3.80;;
4638;SDS011;2332;38.646;-9.154;2023-12-20T09:46:49;8.60;;;4.73;;
4638;SDS011;2332;38.646;-9.154;2023-12-20T09:49:14;8.33;;;3.80;;
4638;SDS011;2332;38.646;-9.154;2023-12-20T09:51:42;12.20;;;3.47;;
4638;SDS011;2332;38.646;-9.154;2023-12-20T09:54:08;13.57;;;4.60;;
4638;SDS011;2332;38.646;-9.154;2023-12-20T09:56:34;7.40;;;3.17;;
4638;SDS011;2332;38.646;-9.154;2023-12-20T09:59:00;7.20;;;3.33;;
4638;SDS011;2332;38.646;-9.154;2023-12-20T10:01:25;6.07;;;2.90;;
4638;SDS011;2332;38.646;-9.154;2023-12-20T10:03:51;5.50;;;2.20;;
4638;SDS011;2332;38.646;-9.154;2023-12-20T10:06:18;8.73;;;2.43;;
4638;SDS011;2332;38.646;-9.154;2023-12-20T10:08:43;8.30;;;2.10;;
4638;SDS011;2332;38.646;-9.154;2023-12-20T10:11:08;9.73;;;2.33;;
4638;SDS011;2332;38.646;-9.154;2023-12-20T10:13:34;7.97;;;2.10;;
4638;SDS011;2332;38.646;-9.154;2023-12-20T10:15:59;15.90;;;2.80;;
4638;SDS011;2332;38.646;-9.154;2023-12-20T10:18:25;11.90;;;2.53;;
4638;SDS011;2332;38.646;-9.154;2023-12-20T10:20:51;8.23;;;2.33;;
4638;SDS011;2332;38.646;-9.154;2023-12-20T10:23:16;9.87;;;2.80;;
4638;SDS011;2332;38.646;-9.154;2023-12-20T10:25:43;8.00;;;2.60;;
4638;SDS011;2332;38.646;-9.154;2023-12-20T10:28:15;8.20;;;2.43;;
4638;SDS011;2332;38.646;-9.154;2023-12-20T10:30:46;5.70;;;1.90;;
4638;SDS011;2332;38.646;-9.154;2023-12-20T10:33:11;9.50;;;2.70;;
4638;SDS011;2332;38.646;-9.154;2023-12-20T10:35:37;8.57;;;2.23;;
4638;SDS011;2332;38.646;-9.154;2023-12-20T10:38:03;4.07;;;2.10;;
4638;SDS011;2332;38.646;-9.154;2023-12-20T10:40:30;7.83;;;2.40;;
4638;SDS011;2332;38.646;-9.154;2023-12-20T10:42:55;12.07;;;3.33;;
4638;SDS011;2332;38.646;-9.154;2023-12-20T10:45:21;5.53;;;1.90;;
4638;SDS011;2332;38.646;-9.154;2023-12-20T10:47:47;4.40;;;2.10;;
4638;SDS011;2332;38.646;-9.154;2023-12-20T10:50:14;10.30;;;2.40;;
4638;SDS011;2332;38.646;-9.154;2023-12-20T10:52:40;8.70;;;2.63;;
4638;SDS011;2332;38.646;-9.154;2023-12-20T10:55:06;6.90;;;2.03;;
4638;SDS011;2332;38.646;-9.154;2023-12-20T10:57:32;6.47;;;2.70;;
4638;SDS011;2332;38.646;-9.154;2023-12-20T10:59:59;11.43;;;2.43;;
4638;SDS011;2332;38.646;-9.154;2023-12-20T11:02:25;4.80;;;2.17;;
4638;SDS011;2332;38.646;-9.154;2023-12-20T11:07:50;6.37;;;2.30;;
4638;SDS011;2332;38.646;-9.154;2023-12-20T11:10:22;6.27;;;2.60;;
4638;SDS011;2332;38.646;-9.154;2023-12-20T11:13:07;3.47;;;2.20;;
4638;SDS011;2332;38.646;-9.154;2023-12-20T11:15:35;11.53;;;3.30;;
4638;SDS011;2332;38.646;-9.154;2023-12-20T11:18:01;7.93;;;3.50;;
4638;SDS011;2332;38.646;-9.154;2023-12-20T11:20:36;16.23;;;3.77;;
4638;SDS011;2332;38.646;-9.154;2023-12-20T11:23:01;8.43;;;2.90;;
4638;SDS011;2332;38.646;-9.154;2023-12-20T11:25:27;14.37;;;3.90;;
4638;SDS011;2332;38.646;-9.154;2023-12-20T11:28:09;7.10;;;2.80;;
4638;SDS011;2332;38.646;-9.154;2023-12-20T11:30:41;6.07;;;2.43;;
4638;SDS011;2332;38.646;-9.154;2023-12-20T11:33:07;11.77;;;2.90;;
4638;SDS011;2332;38.646;-9.154;2023-12-20T11:35:33;6.33;;;2.87;;
4638;SDS011;2332;38.646;-9.154;2023-12-20T11:38:00;7.50;;;3.43;;
4638;SDS011;2332;38.646;-9.154;2023-12-20T11:40:25;10.87;;;2.50;;
4638;SDS011;2332;38.646;-9.154;2023-12-20T11:42:51;11.13;;;2.80;;
4638;SDS011;2332;38.646;-9.154;2023-12-20T11:45:20;7.17;;;3.17;;
4638;SDS011;2332;38.646;-9.154;2023-12-20T11:47:47;8.10;;;2.90;;
4638;SDS011;2332;38.646;-9.154;2023-12-20T11:50:16;10.60;;;3.43;;
4638;SDS011;2332;38.646;-9.154;2023-12-20T11:52:42;6.43;;;2.80;;
4638;SDS011;2332;38.646;-9.154;2023-12-20T11:55:07;11.30;;;3.37;;
4638;SDS011;2332;38.646;-9.154;2023-12-20T11:57:33;5.87;;;2.80;;
4638;SDS011;2332;38.646;-9.154;2023-12-20T11:59:58;7.93;;;2.30;;
4638;SDS011;2332;38.646;-9.154;2023-12-20T12:02:24;6.93;;;2.90;;
4638;SDS011;2332;38.646;-9.154;2023-12-20T12:04:49;5.83;;;3.10;;
4638;SDS011;2332;38.646;-9.154;2023-12-20T12:07:17;9.63;;;3.10;;
4638;SDS011;2332;38.646;-9.154;2023-12-20T12:09:43;6.40;;;3.23;;
4638;SDS011;2332;38.646;-9.154;2023-12-20T12:12:09;5.00;;;3.30;;
4638;SDS011;2332;38.646;-9.154;2023-12-20T12:14:34;14.77;;;4.80;;
4638;SDS011;2332;38.646;-9.154;2023-12-20T12:17:02;7.93;;;3.70;;
4638;SDS011;2332;38.646;-9.154;2023-12-20T12:19:27;10.13;;;3.70;;
4638;SDS011;2332;38.646;-9.154;2023-12-20T12:22:06;6.43;;;2.80;;
4638;SDS011;2332;38.646;-9.154;2023-12-20T12:24:52;8.33;;;3.90;;
4638;SDS011;2332;38.646;-9.154;2023-12-20T12:27:17;13.30;;;3.70;;
4638;SDS011;2332;38.646;-9.154;2023-12-20T12:29:59;11.00;;;3.77;;
4638;SDS011;2332;38.646;-9.154;2023-12-20T12:32:25;9.30;;;3.33;;
4638;SDS011;2332;38.646;-9.154;2023-12-20T12:34:50;9.67;;;3.57;;
4638;SDS011;2332;38.646;-9.154;2023-12-20T12:37:16;5.53;;;3.20;;
4638;SDS011;2332;38.646;-9.154;2023-12-20T12:39:41;6.73;;;3.47;;
4638;SDS011;2332;38.646;-9.154;2023-12-20T12:42:07;6.93;;;2.97;;
4638;SDS011;2332;38.646;-9.154;2023-12-20T12:44:33;8.83;;;2.67;;
4638;SDS011;2332;38.646;-9.154;2023-12-20T12:46:58;8.70;;;3.60;;
4638;SDS011;2332;38.646;-9.154;2023-12-20T12:49:24;14.23;;;3.20;;
4638;SDS011;2332;38.646;-9.154;2023-12-20T12:51:49;6.80;;;2.57;;
4638;SDS011;2332;38.646;-9.154;2023-12-20T12:54:14;7.40;;;3.43;;
4638;SDS011;2332;38.646;-9.154;2023-12-20T12:56:42;6.27;;;2.77;;
4638;SDS011;2332;38.646;-9.154;2023-12-20T12:59:07;11.10;;;2.53;;
4638;SDS011;2332;38.646;-9.154;2023-12-20T13:01:33;9.03;;;2.77;;
4638;SDS011;2332;38.646;-9.154;2023-12-20T13:03:59;3.93;;;2.20;;
4638;SDS011;2332;38.646;-9.154;2023-12-20T13:06:26;5.80;;;2.80;;
4638;SDS011;2332;38.646;-9.154;2023-12-20T13:08:52;10.13;;;3.10;;
4638;SDS011;2332;38.646;-9.154;2023-12-20T13:11:17;10.23;;;2.80;;
4638;SDS011;2332;38.646;-9.154;2023-12-20T13:13:42;9.53;;;3.17;;
4638;SDS011;2332;38.646;-9.154;2023-12-20T13:16:08;11.63;;;3.03;;
4638;SDS011;2332;38.646;-9.154;2023-12-20T13:18:33;14.83;;;2.50;;
4638;SDS011;2332;38.646;-9.154;2023-12-20T13:20:59;11.53;;;2.93;;
4638;SDS011;2332;38.646;-9.154;2023-12-20T13:23:24;6.90;;;2.80;;
4638;SDS011;2332;38.646;-9.154;2023-12-20T13:25:49;6.93;;;2.13;;
4638;SDS011;2332;38.646;-9.154;2023-12-20T13:28:15;10.80;;;3.00;;
4638;SDS011;2332;38.646;-9.154;2023-12-20T13:30:40;10.33;;;2.10;;
4638;SDS011;2332;38.646;-9.154;2023-12-20T13:33:06;3.33;;;1.90;;
4638;SDS011;2332;38.646;-9.154;2023-12-20T13:35:32;10.43;;;2.50;;
4638;SDS011;2332;38.646;-9.154;2023-12-20T13:37:58;6.63;;;2.10;;
4638;SDS011;2332;38.646;-9.154;2023-12-20T13:40:24;9.93;;;2.70;;
4638;SDS011;2332;38.646;-9.154;2023-12-20T13:42:49;5.63;;;2.10;;
4638;SDS011;2332;38.646;-9.154;2023-12-20T13:45:15;10.20;;;2.20;;
4638;SDS011;2332;38.646;-9.154;2023-12-20T13:47:40;8.80;;;2.20;;
4638;SDS011;2332;38.646;-9.154;2023-12-20T13:50:06;4.90;;;2.23;;
4638;SDS011;2332;38.646;-9.154;2023-12-20T13:52:31;6.63;;;2.13;;
4638;SDS011;2332;38.646;-9.154;2023-12-20T13:54:57;5.60;;;2.03;;
4638;SDS011;2332;38.646;-9.154;2023-12-20T13:57:22;16.03;;;3.30;;
4638;SDS011;2332;38.646;-9.154;2023-12-20T13:59:47;6.10;;;2.07;;
4638;SDS011;2332;38.646;-9.154;2023-12-20T14:02:13;10.10;;;2.80;;
4638;SDS011;2332;38.646;-9.154;2023-12-20T14:04:38;9.60;;;2.80;;
4638;SDS011;2332;38.646;-9.154;2023-12-20T14:07:06;7.47;;;2.00;;
4638;SDS011;2332;38.646;-9.154;2023-12-20T14:09:32;9.23;;;2.50;;
4638;SDS011;2332;38.646;-9.154;2023-12-20T14:11:58;6.47;;;2.00;;
4638;SDS011;2332;38.646;-9.154;2023-12-20T14:14:23;6.97;;;1.83;;
4638;SDS011;2332;38.646;-9.154;2023-12-20T14:16:49;4.60;;;2.10;;
4638;SDS011;2332;38.646;-9.154;2023-12-20T14:19:14;31.87;;;2.90;;
4638;SDS011;2332;38.646;-9.154;2023-12-20T14:21:40;3.80;;;1.60;;
4638;SDS011;2332;38.646;-9.154;2023-12-20T14:24:05;4.07;;;1.47;;
4638;SDS011;2332;38.646;-9.154;2023-12-20T14:26:31;8.90;;;2.17;;
4638;SDS011;2332;38.646;-9.154;2023-12-20T14:28:56;8.73;;;2.50;;
4638;SDS011;2332;38.646;-9.154;2023-12-20T14:31:22;5.53;;;2.03;;
4638;SDS011;2332;38.646;-9.154;2023-12-20T14:33:49;7.93;;;2.17;;
4638;SDS011;2332;38.646;-9.154;2023-12-20T14:36:16;8.80;;;2.20;;
4638;SDS011;2332;38.646;-9.154;2023-12-20T14:38:42;7.77;;;2.47;;
4638;SDS011;2332;38.646;-9.154;2023-12-20T14:41:08;9.13;;;2.23;;
4638;SDS011;2332;38.646;-9.154;2023-12-20T14:43:34;4.13;;;2.27;;
4638;SDS011;2332;38.646;-9.154;2023-12-20T14:45:59;10.93;;;2.17;;